Time;durP1;ratioP1;P1;durP2;ratioP2;P2;SDS_P1;SDS_P2;PMS_P1;PMS_P2;Temp;Humidity;BMP_temperature;BMP_pressure;BME280_temperature;BME280_humidity;BME280_pressure;Samples;Min_cycle;Max_cycle;Signal;HPM_P1;HPM_P2
2023/09/27 03:01:54;;;;;;;3.72;3.05;;;22.20;50.80;;;;;;5150354;23;46882;-81
2023/09/27 03:04:20;;;;;;;4.00;3.40;;;22.20;50.80;;;;;;4859482;28;45189;-82
2023/09/27 03:06:48;;;;;;;4.65;3.13;;;22.20;50.80;;;;;;4876077;28;46709;-83
2023/09/27 03:09:14;;;;;;;3.40;3.10;;;22.20;50.90;;;;;;4893986;28;45121;-82
2023/09/27 03:11:43;;;;;;;3.72;3.30;;;22.20;50.80;;;;;;4856704;28;45488;-83
2023/09/27 03:14:08;;;;;;;4.63;3.25;;;22.20;50.80;;;;;;4880781;28;45406;-81
2023/09/27 03:16:34;;;;;;;4.50;3.30;;;22.20;50.80;;;;;;4902551;28;45825;-83
2023/09/27 03:19:00;;;;;;;4.00;3.20;;;22.20;50.80;;;;;;4872606;28;50750;-83
2023/09/27 03:21:29;;;;;;;3.40;3.10;;;22.20;50.90;;;;;;4870751;28;45486;-83
2023/09/27 03:23:55;;;;;;;4.18;3.10;;;22.20;50.80;;;;;;4890412;28;45284;-81
2023/09/27 03:26:22;;;;;;;4.03;3.07;;;22.20;50.70;;;;;;4890419;28;46342;-83
2023/09/27 03:28:50;;;;;;;3.83;3.17;;;22.20;50.70;;;;;;4893868;28;44712;-83
2023/09/27 03:31:16;;;;;;;3.30;3.00;;;22.20;50.70;;;;;;4886948;28;45317;-83
2023/09/27 03:33:42;;;;;;;3.45;3.15;;;22.20;50.70;;;;;;4897958;28;45359;-82
2023/09/27 03:36:07;;;;;;;4.87;3.40;;;22.20;50.70;;;;;;4889764;28;46023;-83
2023/09/27 03:38:34;;;;;;;3.10;2.80;;;22.20;50.70;;;;;;4882246;28;45299;-83
2023/09/27 03:41:00;;;;;;;4.32;3.28;;;22.20;50.70;;;;;;4892583;28;45127;-83
2023/09/27 03:43:26;;;;;;;3.37;3.00;;;22.10;50.70;;;;;;4865512;28;44863;-83
2023/09/27 03:45:53;;;;;;;4.80;3.22;;;22.10;50.70;;;;;;4857849;28;46807;-83
2023/09/27 03:48:19;;;;;;;3.10;2.80;;;22.20;50.70;;;;;;4897398;28;45465;-81
2023/09/27 03:50:46;;;;;;;3.97;3.00;;;22.20;50.70;;;;;;4907677;28;45140;-83
2023/09/27 03:53:11;;;;;;;3.20;2.90;;;22.10;50.70;;;;;;4879659;28;45107;-82
2023/09/27 03:55:38;;;;;;;3.97;2.77;;;22.10;50.70;;;;;;4879843;28;46521;-83
2023/09/27 03:58:03;;;;;;;3.10;2.80;;;22.20;50.70;;;;;;4900735;28;45594;-83
2023/09/27 04:00:29;;;;;;;3.60;2.90;;;22.10;50.60;;;;;;4888066;28;45233;-82
2023/09/27 04:02:55;;;;;;;3.38;2.92;;;22.20;50.70;;;;;;4908686;28;45316;-82
2023/09/27 04:05:23;;;;;;;3.20;2.90;;;22.20;50.70;;;;;;4897811;28;45560;-84
2023/09/27 04:07:49;;;;;;;3.17;2.90;;;22.20;50.70;;;;;;4887990;28;45462;-83
2023/09/27 04:10:16;;;;;;;3.50;2.97;;;22.20;50.70;;;;;;4895845;28;45371;-83
2023/09/27 04:12:42;;;;;;;3.43;2.63;;;22.20;50.70;;;;;;4897199;28;45379;-83
2023/09/27 04:15:10;;;;;;;3.15;2.78;;;22.20;50.70;;;;;;4906832;28;46387;-83
2023/09/27 04:17:37;;;;;;;4.30;2.97;;;22.20;50.70;;;;;;4908848;28;45016;-81
2023/09/27 04:20:07;;;;;;;3.10;2.83;;;22.20;50.70;;;;;;4893296;28;44935;-81
2023/09/27 04:22:33;;;;;;;3.75;2.83;;;22.10;50.70;;;;;;4904767;23;45665;-52
2023/09/27 04:24:59;;;;;;;3.60;2.83;;;22.10;50.70;;;;;;4872032;28;46132;-53
2023/09/27 04:27:25;;;;;;;3.80;3.08;;;22.10;50.70;;;;;;4872426;28;45313;-56
2023/09/27 04:29:51;;;;;;;3.85;3.10;;;22.10;50.70;;;;;;4878523;28;45629;-57
2023/09/27 04:32:16;;;;;;;3.15;2.85;;;22.10;50.70;;;;;;4842209;29;45785;-56
2023/09/27 04:34:42;;;;;;;4.00;2.92;;;22.10;50.60;;;;;;4856006;29;46653;-54
2023/09/27 04:37:08;;;;;;;3.28;2.97;;;22.10;50.60;;;;;;4849403;29;45653;-55
2023/09/27 04:39:34;;;;;;;3.72;2.95;;;22.10;50.70;;;;;;4847882;28;46348;-52
2023/09/27 04:42:00;;;;;;;5.22;2.97;;;22.10;50.60;;;;;;4844051;29;45371;-55
2023/09/27 04:44:25;;;;;;;3.05;2.70;;;22.10;50.60;;;;;;4853534;29;47019;-57
2023/09/27 04:46:52;;;;;;;3.75;3.00;;;22.10;50.60;;;;;;4841662;29;45166;-55
2023/09/27 04:49:17;;;;;;;3.70;3.00;;;22.10;50.60;;;;;;4857406;29;45303;-53
2023/09/27 04:51:43;;;;;;;3.57;3.13;;;22.10;50.60;;;;;;4838456;28;45321;-56
2023/09/27 04:54:08;;;;;;;3.50;2.83;;;22.10;50.60;;;;;;4843552;29;46258;-57
2023/09/27 04:56:34;;;;;;;3.60;3.30;;;22.10;50.60;;;;;;4852804;28;45936;-53
2023/09/27 04:59:01;;;;;;;3.40;3.10;;;22.10;50.60;;;;;;4855125;29;45204;-52
2023/09/27 05:01:27;;;;;;;3.63;3.33;;;22.10;50.60;;;;;;4838926;29;45371;-55
2023/09/27 05:03:53;;;;;;;3.53;3.07;;;22.10;50.60;;;;;;4850813;29;45644;-55
2023/09/27 05:06:18;;;;;;;3.43;2.97;;;22.10;50.60;;;;;;4844174;29;45512;-55
2023/09/27 05:08:44;;;;;;;3.47;3.13;;;22.10;50.60;;;;;;4851570;29;45313;-54
2023/09/27 05:11:10;;;;;;;3.10;2.80;;;22.10;50.60;;;;;;4847938;29;45249;-54
2023/09/27 05:13:36;;;;;;;3.45;3.15;;;22.10;50.60;;;;;;4849559;29;45363;-53
2023/09/27 05:16:01;;;;;;;3.40;3.10;;;22.10;50.60;;;;;;4833690;29;45232;-54
2023/09/27 05:18:27;;;;;;;3.23;2.93;;;22.10;50.60;;;;;;4859757;29;45341;-54
2023/09/27 05:20:52;;;;;;;3.57;3.27;;;22.10;50.70;;;;;;4848156;29;45259;-54
2023/09/27 05:23:18;;;;;;;3.47;3.13;;;22.10;50.60;;;;;;4851066;29;45392;-53
2023/09/27 05:25:44;;;;;;;3.93;3.13;;;22.10;50.60;;;;;;4841614;29;45267;-56
2023/09/27 05:28:09;;;;;;;3.30;3.00;;;22.10;50.70;;;;;;4845074;29;47711;-53
2023/09/27 05:30:35;;;;;;;3.90;3.37;;;22.10;50.60;;;;;;4844650;29;45501;-52
2023/09/27 05:33:01;;;;;;;3.85;3.03;;;22.10;50.60;;;;;;4852227;29;45933;-53
2023/09/27 05:35:26;;;;;;;3.53;3.22;;;22.10;50.60;;;;;;4845645;29;45532;-53
2023/09/27 05:37:52;;;;;;;3.58;3.22;;;22.10;50.60;;;;;;4854572;29;45013;-53
2023/09/27 05:40:18;;;;;;;4.10;3.33;;;22.10;50.60;;;;;;4851472;29;44706;-55
2023/09/27 05:42:44;;;;;;;4.70;3.30;;;22.10;50.70;;;;;;4864751;29;46146;-56
2023/09/27 05:45:11;;;;;;;4.93;3.33;;;22.10;50.70;;;;;;4828969;29;45175;-54
2023/09/27 05:47:37;;;;;;;4.55;3.35;;;22.10;50.60;;;;;;4869063;28;45068;-51
2023/09/27 05:50:04;;;;;;;3.40;3.10;;;22.10;50.60;;;;;;4855842;29;45717;-53
2023/09/27 05:52:31;;;;;;;3.40;3.10;;;22.10;50.60;;;;;;4847726;29;45694;-50
2023/09/27 05:54:57;;;;;;;3.67;3.15;;;22.10;50.60;;;;;;4854202;29;45153;-54
2023/09/27 05:57:22;;;;;;;4.47;3.37;;;22.10;50.60;;;;;;4850550;29;45264;-50
2023/09/27 05:59:48;;;;;;;3.73;3.37;;;22.10;50.60;;;;;;4861669;29;45630;-51
2023/09/27 06:02:16;;;;;;;4.20;3.47;;;22.10;50.60;;;;;;4834547;29;45889;-55
2023/09/27 06:04:51;;;;;;;3.75;3.30;;;22.10;50.60;;;;;;4856153;29;45394;-54
2023/09/27 06:07:17;;;;;;;3.78;3.20;;;22.10;50.60;;;;;;4853860;29;45251;-50
2023/09/27 06:09:44;;;;;;;4.18;3.28;;;22.10;50.60;;;;;;4856843;29;45276;-51
2023/09/27 06:12:10;;;;;;;3.87;3.20;;;22.10;50.60;;;;;;4843930;29;46332;-51
2023/09/27 06:14:36;;;;;;;4.30;3.30;;;22.10;50.60;;;;;;4857169;29;45044;-54
2023/09/27 06:17:02;;;;;;;3.97;3.20;;;22.10;50.70;;;;;;4839418;29;46020;-54
2023/09/27 06:19:28;;;;;;;4.43;3.30;;;22.10;50.60;;;;;;4857735;29;45053;-51
2023/09/27 06:21:53;;;;;;;4.88;3.40;;;22.10;50.60;;;;;;4827964;29;45425;-51
2023/09/27 06:24:19;;;;;;;4.47;3.20;;;22.10;50.60;;;;;;4849576;29;45134;-53
2023/09/27 06:26:44;;;;;;;3.87;3.30;;;22.10;50.70;;;;;;4849662;29;45485;-53
2023/09/27 06:29:10;;;;;;;4.80;3.40;;;22.10;50.60;;;;;;4860717;29;45538;-53
2023/09/27 06:31:35;;;;;;;3.67;3.27;;;22.20;50.60;;;;;;4838599;29;45473;-51
2023/09/27 06:34:01;;;;;;;4.73;3.30;;;22.10;50.70;;;;;;4860317;29;45663;-51
2023/09/27 06:36:29;;;;;;;3.60;3.30;;;22.10;50.60;;;;;;4852018;29;44781;-53
2023/09/27 06:38:56;;;;;;;5.40;3.40;;;22.10;50.60;;;;;;4851038;29;45494;-54
2023/09/27 06:41:21;;;;;;;3.95;3.20;;;22.10;50.60;;;;;;4850912;29;45558;-55
2023/09/27 06:43:47;;;;;;;3.77;3.17;;;22.10;50.60;;;;;;4855666;29;45378;-55
2023/09/27 06:46:15;;;;;;;4.10;3.33;;;22.10;50.70;;;;;;4843410;29;45242;-53
2023/09/27 06:48:41;;;;;;;3.90;3.30;;;22.10;50.70;;;;;;4863497;29;45587;-51
2023/09/27 06:51:07;;;;;;;3.90;3.10;;;22.10;50.70;;;;;;4846353;29;47088;-54
2023/09/27 06:53:33;;;;;;;4.80;3.20;;;22.10;50.70;;;;;;4854423;29;44694;-53
2023/09/27 06:55:59;;;;;;;3.53;3.20;;;22.10;50.70;;;;;;4851030;29;45821;-52
2023/09/27 06:58:25;;;;;;;3.95;3.20;;;22.10;50.70;;;;;;4858023;29;45282;-52
2023/09/27 07:00:52;;;;;;;3.78;3.20;;;22.10;50.70;;;;;;4841655;29;45569;-52
2023/09/27 07:03:19;;;;;;;3.80;3.40;;;22.00;50.60;;;;;;4821738;29;45786;-53
2023/09/27 07:05:46;;;;;;;4.10;3.28;;;22.10;50.70;;;;;;4846109;29;45995;-53
2023/09/27 07:08:13;;;;;;;4.10;3.50;;;22.10;50.70;;;;;;4853256;29;45245;-53
2023/09/27 07:10:38;;;;;;;3.30;3.00;;;22.10;50.70;;;;;;4847147;29;45359;-54
2023/09/27 07:13:04;;;;;;;4.37;3.20;;;22.10;50.70;;;;;;4850176;29;45306;-54
2023/09/27 07:15:31;;;;;;;4.63;3.10;;;22.10;50.70;;;;;;4843580;29;45533;-52
2023/09/27 07:17:57;;;;;;;4.13;3.30;;;22.10;50.70;;;;;;4855504;29;45439;-51
2023/09/27 07:20:32;;;;;;;4.87;3.17;;;22.10;50.80;;;;;;4850478;29;45344;-55
2023/09/27 07:22:58;;;;;;;3.85;3.10;;;22.10;50.70;;;;;;4851835;29;45473;-53
2023/09/27 07:25:24;;;;;;;3.50;3.17;;;22.10;50.70;;;;;;4856462;29;46069;-53
2023/09/27 07:27:53;;;;;;;3.55;3.08;;;22.10;50.80;;;;;;4854166;29;46314;-54
2023/09/27 07:30:23;;;;;;;3.42;3.10;;;22.10;50.80;;;;;;4844895;29;48200;-54
2023/09/27 07:32:49;;;;;;;4.60;3.10;;;22.10;50.80;;;;;;4854198;29;45532;-52
2023/09/27 07:35:16;;;;;;;4.30;3.33;;;22.10;50.80;;;;;;4845037;29;45294;-53
2023/09/27 07:37:43;;;;;;;4.68;3.25;;;22.10;50.80;;;;;;4855195;29;45704;-50
2023/09/27 07:40:10;;;;;;;4.00;3.15;;;22.10;50.80;;;;;;4848193;29;47397;-55
2023/09/27 07:42:36;;;;;;;3.93;3.33;;;22.10;50.80;;;;;;4856751;29;45496;-56
2023/09/27 07:45:04;;;;;;;4.32;3.40;;;22.10;50.80;;;;;;4853861;28;45229;-54
2023/09/27 07:47:29;;;;;;;4.05;3.05;;;22.10;50.80;;;;;;4841966;29;45350;-56
2023/09/27 07:49:55;;;;;;;3.80;3.23;;;22.10;50.80;;;;;;4854761;29;45040;-54
2023/09/27 07:52:21;;;;;;;4.20;3.23;;;22.10;50.90;;;;;;4845126;29;45497;-55
2023/09/27 07:54:46;;;;;;;5.03;3.50;;;22.10;50.80;;;;;;4861403;29;45327;-53
2023/09/27 07:57:12;;;;;;;4.37;3.50;;;22.10;50.80;;;;;;4840908;29;45545;-56
2023/09/27 07:59:37;;;;;;;4.57;3.40;;;22.00;50.80;;;;;;4857715;29;45828;-57
2023/09/27 08:02:03;;;;;;;6.20;3.63;;;22.10;50.90;;;;;;4839529;29;45467;-57
2023/09/27 08:04:28;;;;;;;4.30;3.33;;;22.10;50.90;;;;;;4856373;29;45326;-58
2023/09/27 08:06:54;;;;;;;4.77;3.97;;;22.10;50.80;;;;;;4852135;29;45082;-57
2023/09/27 08:09:22;;;;;;;4.33;3.43;;;22.10;50.80;;;;;;4856279;29;46204;-56
2023/09/27 08:11:48;;;;;;;4.63;3.38;;;22.10;50.90;;;;;;4855560;29;45753;-56
2023/09/27 08:14:16;;;;;;;4.82;3.70;;;22.00;50.80;;;;;;4849413;29;45344;-55
2023/09/27 08:16:42;;;;;;;4.20;3.30;;;22.10;50.90;;;;;;4838808;29;46002;-55
2023/09/27 08:19:08;;;;;;;4.55;3.80;;;22.00;50.80;;;;;;4855183;29;46049;-57
2023/09/27 08:21:34;;;;;;;5.32;3.92;;;22.10;50.90;;;;;;4851728;29;45201;-53
2023/09/27 08:23:59;;;;;;;4.30;3.70;;;22.10;50.90;;;;;;4855622;29;45154;-55
2023/09/27 08:26:26;;;;;;;4.40;3.60;;;22.10;50.90;;;;;;4854592;29;45574;-50
2023/09/27 08:28:51;;;;;;;4.10;3.58;;;22.00;50.80;;;;;;4858418;29;45247;-56
2023/09/27 08:31:17;;;;;;;5.30;3.60;;;22.00;50.90;;;;;;4838238;29;46173;-56
2023/09/27 08:33:43;;;;;;;4.23;3.60;;;22.00;50.90;;;;;;4854625;29;45395;-54
2023/09/27 08:36:09;;;;;;;4.40;3.57;;;22.00;50.90;;;;;;4842628;29;45054;-51
2023/09/27 08:38:34;;;;;;;4.95;4.20;;;22.00;50.90;;;;;;4860439;29;46129;-55
2023/09/27 08:41:00;;;;;;;4.65;3.60;;;22.10;51.00;;;;;;4850983;29;45422;-57
2023/09/27 08:43:28;;;;;;;4.25;3.72;;;22.00;50.90;;;;;;4855931;29;46052;-57
2023/09/27 08:45:53;;;;;;;4.72;4.13;;;22.00;50.90;;;;;;4841013;29;46262;-53
2023/09/27 08:48:22;;;;;;;4.90;3.97;;;22.00;50.90;;;;;;4852896;29;45340;-49
2023/09/27 08:50:49;;;;;;;4.13;3.55;;;22.00;50.90;;;;;;4846654;29;44883;-55
2023/09/27 08:53:15;;;;;;;4.75;4.10;;;22.00;50.90;;;;;;4834583;29;46159;-50
2023/09/27 08:55:47;;;;;;;4.55;3.90;;;22.00;50.90;;;;;;4831658;29;45204;-49
2023/09/27 08:58:12;;;;;;;5.88;4.20;;;22.00;50.90;;;;;;4852553;29;45398;-51
2023/09/27 09:00:41;;;;;;;4.55;4.03;;;22.00;50.90;;;;;;4844475;29;45420;-54
2023/09/27 09:03:06;;;;;;;5.95;3.92;;;22.00;50.90;;;;;;4832073;29;45340;-52
2023/09/27 09:05:32;;;;;;;4.50;3.90;;;22.00;50.90;;;;;;4848973;29;45326;-51
2023/09/27 09:07:59;;;;;;;5.00;4.20;;;22.00;50.90;;;;;;4856899;29;45585;-52
2023/09/27 09:10:24;;;;;;;5.20;3.95;;;22.10;51.00;;;;;;4846099;29;44942;-52
2023/09/27 09:12:51;;;;;;;4.63;4.10;;;22.00;51.00;;;;;;4858233;29;45003;-53
2023/09/27 09:15:40;;;;;;;5.07;4.27;;;22.10;51.00;;;;;;4840564;29;45492;-52
2023/09/27 09:18:11;;;;;;;4.60;4.07;;;22.00;51.00;;;;;;4834106;29;47315;-53
2023/09/27 09:20:54;;;;;;;5.05;4.03;;;22.00;50.90;;;;;;4842018;29;45817;-53
2023/09/27 09:23:33;;;;;;;4.57;4.18;;;22.00;51.00;;;;;;4852419;29;45930;-53
2023/09/27 09:25:59;;;;;;;4.63;4.00;;;22.00;51.00;;;;;;4847931;29;45648;-52
2023/09/27 09:28:24;;;;;;;5.20;4.20;;;22.00;51.00;;;;;;4857017;29;46301;-49
2023/09/27 09:30:50;;;;;;;4.63;4.07;;;22.00;51.00;;;;;;4842229;29;45979;-52
2023/09/27 09:33:28;;;;;;;4.72;3.90;;;22.10;51.10;;;;;;4851592;29;45313;-51
2023/09/27 09:35:54;;;;;;;6.00;4.60;;;22.10;51.00;;;;;;4861379;28;45594;-53
2023/09/27 09:38:25;;;;;;;5.55;4.13;;;22.10;51.10;;;;;;4838037;29;46800;-51
2023/09/27 09:40:52;;;;;;;4.72;4.13;;;22.10;51.00;;;;;;4843943;29;45187;-52
2023/09/27 09:43:34;;;;;;;4.85;3.88;;;22.10;51.10;;;;;;4852413;29;45388;-52
2023/09/27 09:46:03;;;;;;;4.70;4.20;;;22.10;51.10;;;;;;4824404;29;45701;-56
2023/09/27 09:48:29;;;;;;;4.90;4.18;;;22.10;51.00;;;;;;4850662;29;45197;-56
2023/09/27 09:51:03;;;;;;;5.65;4.30;;;22.10;51.00;;;;;;4839534;29;45209;-53
2023/09/27 09:53:28;;;;;;;5.07;4.45;;;22.10;51.40;;;;;;4853119;29;45002;-58
2023/09/27 09:55:54;;;;;;;5.63;4.10;;;22.10;51.10;;;;;;4842881;29;45168;-58
2023/09/27 09:58:38;;;;;;;4.90;4.15;;;22.10;51.10;;;;;;4852588;29;45236;-56
2023/09/27 10:01:04;;;;;;;4.60;3.90;;;22.10;51.10;;;;;;4851332;28;45116;-56
2023/09/27 10:03:32;;;;;;;4.85;4.15;;;22.10;51.10;;;;;;4850377;29;45343;-54
2023/09/27 10:06:02;;;;;;;4.30;3.83;;;22.10;51.10;;;;;;4846748;29;45514;-52
2023/09/27 10:08:34;;;;;;;5.10;4.28;;;22.10;51.10;;;;;;4850188;29;45536;-56
2023/09/27 10:11:04;;;;;;;4.40;4.00;;;22.10;51.10;;;;;;4848514;29;45942;-56
2023/09/27 10:13:32;;;;;;;5.50;4.05;;;22.10;51.10;;;;;;4849033;29;45617;-57
2023/09/27 10:15:57;;;;;;;4.73;4.23;;;22.10;51.10;;;;;;4843170;29;45614;-54
2023/09/27 10:18:23;;;;;;;4.90;4.20;;;22.10;51.10;;;;;;4855182;29;45180;-56
2023/09/27 10:21:01;;;;;;;4.40;4.00;;;22.10;51.10;;;;;;4850895;29;45336;-58
2023/09/27 10:23:26;;;;;;;5.18;4.07;;;22.10;51.10;;;;;;4852008;29;44832;-56
2023/09/27 10:25:52;;;;;;;4.45;4.03;;;22.10;51.10;;;;;;4850537;29;45511;-57
2023/09/27 10:28:18;;;;;;;4.93;4.43;;;22.10;51.10;;;;;;4857674;29;45422;-56
2023/09/27 10:30:48;;;;;;;5.10;4.60;;;22.10;51.10;;;;;;4844169;29;45712;-56
2023/09/27 10:33:25;;;;;;;5.13;4.28;;;22.10;51.10;;;;;;4851739;29;45401;-56
2023/09/27 10:36:03;;;;;;;5.30;4.63;;;22.10;51.10;;;;;;4849886;29;45019;-53
2023/09/27 10:38:41;;;;;;;4.65;4.20;;;22.10;51.10;;;;;;4857566;29;45819;-57
2023/09/27 10:41:07;;;;;;;4.67;4.17;;;22.10;51.10;;;;;;4834608;29;45507;-52
2023/09/27 10:43:35;;;;;;;4.75;4.10;;;22.10;51.10;;;;;;4850825;29;45415;-53
2023/09/27 10:46:04;;;;;;;4.67;4.07;;;22.10;51.10;;;;;;4843793;29;45283;-54
2023/09/27 10:48:30;;;;;;;4.75;4.00;;;22.10;51.10;;;;;;4853885;29;45321;-55
2023/09/27 10:50:56;;;;;;;5.07;4.20;;;22.10;51.10;;;;;;4832089;29;48472;-55
2023/09/27 10:53:28;;;;;;;4.60;3.95;;;22.10;51.10;;;;;;4850007;29;45758;-51
2023/09/27 10:55:54;;;;;;;4.65;4.15;;;22.10;51.10;;;;;;4845190;29;45292;-51
2023/09/27 10:58:19;;;;;;;4.70;3.90;;;22.20;51.20;;;;;;4852503;29;48693;-52
2023/09/27 11:00:53;;;;;;;4.47;3.90;;;22.20;51.10;;;;;;4834950;29;45513;-52
2023/09/27 11:03:18;;;;;;;5.85;4.85;;;22.20;51.20;;;;;;4850561;29;45174;-52
2023/09/27 11:05:44;;;;;;;5.63;4.40;;;22.20;51.20;;;;;;4849555;29;45351;-52
2023/09/27 11:08:09;;;;;;;5.03;4.45;;;22.20;51.20;;;;;;4838103;29;46124;-53
2023/09/27 11:10:35;;;;;;;4.50;4.07;;;22.20;51.20;;;;;;4847147;29;45268;-53
2023/09/27 11:13:08;;;;;;;5.07;4.35;;;22.20;51.20;;;;;;4856121;29;45524;-52
2023/09/27 11:15:33;;;;;;;5.20;4.40;;;22.20;51.20;;;;;;4822238;29;45625;-60
2023/09/27 11:17:59;;;;;;;4.50;4.10;;;22.20;51.20;;;;;;4836861;29;46770;-57
2023/09/27 11:20:24;;;;;;;4.40;4.00;;;22.20;51.20;;;;;;4843983;29;45331;-55
2023/09/27 11:22:56;;;;;;;4.60;4.07;;;22.20;51.20;;;;;;4864945;29;45234;-58
2023/09/27 11:25:32;;;;;;;4.25;3.85;;;22.20;51.20;;;;;;4863502;28;45434;-54
2023/09/27 11:27:58;;;;;;;5.28;4.20;;;22.20;51.20;;;;;;4859152;29;45663;-55
2023/09/27 11:30:30;;;;;;;4.80;3.97;;;22.20;51.20;;;;;;4850572;29;44754;-58
2023/09/27 11:32:55;;;;;;;4.53;4.07;;;22.20;51.20;;;;;;4843159;29;45298;-51
2023/09/27 11:35:21;;;;;;;4.82;4.25;;;22.20;51.20;;;;;;4841479;29;45334;-58
2023/09/27 11:37:48;;;;;;;5.47;4.30;;;22.30;51.50;;;;;;4876642;28;45355;-59
2023/09/27 11:40:13;;;;;;;5.07;3.95;;;22.20;51.20;;;;;;4856638;29;45444;-57
2023/09/27 11:42:39;;;;;;;5.43;4.50;;;22.30;51.40;;;;;;4854416;29;45350;-56
2023/09/27 11:45:08;;;;;;;5.20;3.90;;;22.30;51.30;;;;;;4854322;29;45263;-59
2023/09/27 11:47:51;;;;;;;4.10;3.60;;;22.20;51.30;;;;;;4839172;29;46215;-58
2023/09/27 11:50:18;;;;;;;4.33;3.70;;;22.30;51.40;;;;;;4853397;29;45315;-56
2023/09/27 11:52:46;;;;;;;4.20;3.80;;;22.30;51.40;;;;;;4851572;29;45453;-56
2023/09/27 11:55:12;;;;;;;4.90;3.80;;;22.30;51.40;;;;;;4854605;29;45486;-55
2023/09/27 11:57:38;;;;;;;4.22;3.83;;;22.30;51.40;;;;;;4845974;29;47112;-58
2023/09/27 12:00:08;;;;;;;4.63;4.00;;;22.30;51.40;;;;;;4861315;29;45183;-60
2023/09/27 12:02:34;;;;;;;4.47;3.97;;;22.30;51.50;;;;;;4823058;29;46508;-56
2023/09/27 12:05:05;;;;;;;4.60;3.50;;;22.30;51.50;;;;;;4858263;29;45734;-58
2023/09/27 12:07:32;;;;;;;4.13;3.73;;;22.30;51.50;;;;;;4855877;29;46415;-59
2023/09/27 12:09:57;;;;;;;5.20;3.80;;;22.30;51.50;;;;;;4865286;29;45014;-56
2023/09/27 12:12:23;;;;;;;4.82;3.78;;;22.30;51.50;;;;;;4857631;28;45552;-59
2023/09/27 12:14:49;;;;;;;4.07;3.65;;;22.30;51.60;;;;;;4862568;29;45836;-59
2023/09/27 12:17:16;;;;;;;4.55;3.70;;;22.30;51.50;;;;;;4838926;28;46625;-54
2023/09/27 12:19:42;;;;;;;4.22;3.70;;;22.30;51.50;;;;;;4860970;29;45252;-59
2023/09/27 12:22:08;;;;;;;4.65;3.65;;;22.30;51.50;;;;;;4861430;28;46810;-59
2023/09/27 12:24:34;;;;;;;4.70;3.92;;;22.30;51.60;;;;;;4860527;29;45167;-52
2023/09/27 12:26:59;;;;;;;4.43;3.35;;;22.30;51.60;;;;;;4857698;29;45531;-55
2023/09/27 12:29:25;;;;;;;3.92;3.50;;;22.30;51.60;;;;;;4859977;29;45320;-55
2023/09/27 12:31:50;;;;;;;5.10;3.88;;;22.30;51.60;;;;;;4839362;29;45384;-57
2023/09/27 12:34:16;;;;;;;4.18;3.78;;;22.30;51.60;;;;;;4865234;29;45223;-51
2023/09/27 12:36:41;;;;;;;4.13;3.67;;;22.30;51.60;;;;;;4846525;29;47207;-58
2023/09/27 12:39:07;;;;;;;4.07;3.67;;;22.30;51.60;;;;;;4857845;29;44700;-54
2023/09/27 12:41:33;;;;;;;4.15;3.40;;;22.30;51.60;;;;;;4848678;29;45610;-55
2023/09/27 12:43:58;;;;;;;5.00;3.60;;;22.30;51.70;;;;;;4859747;29;45291;-58
2023/09/27 12:46:24;;;;;;;5.07;3.42;;;22.30;51.60;;;;;;4840738;29;45206;-59
2023/09/27 12:48:49;;;;;;;5.22;3.70;;;22.30;51.70;;;;;;4852663;29;44715;-54
2023/09/27 12:51:15;;;;;;;4.70;3.45;;;22.30;51.60;;;;;;4834606;29;44695;-57
2023/09/27 12:53:40;;;;;;;3.70;3.35;;;22.30;51.70;;;;;;4855658;29;44787;-53
2023/09/27 12:56:06;;;;;;;4.63;3.35;;;22.30;51.70;;;;;;4837308;29;46004;-53
2023/09/27 12:58:31;;;;;;;3.72;3.30;;;22.30;51.70;;;;;;4855955;29;45288;-54
2023/09/27 13:00:57;;;;;;;4.00;3.50;;;22.30;51.70;;;;;;4841544;29;45788;-53
2023/09/27 13:03:23;;;;;;;4.22;3.80;;;22.30;51.70;;;;;;4850584;29;45486;-51
2023/09/27 13:05:48;;;;;;;4.10;3.70;;;22.30;51.70;;;;;;4848745;29;46016;-54
2023/09/27 13:08:14;;;;;;;4.03;3.60;;;22.30;51.70;;;;;;4860494;29;45307;-53
2023/09/27 13:10:40;;;;;;;3.85;3.42;;;22.30;51.80;;;;;;4834701;29;45317;-53
2023/09/27 13:13:05;;;;;;;4.10;3.55;;;22.30;51.80;;;;;;4846462;29;47630;-51
2023/09/27 13:15:32;;;;;;;3.78;3.20;;;22.30;51.80;;;;;;4834582;29;45290;-52
2023/09/27 13:17:58;;;;;;;3.30;2.95;;;22.30;51.80;;;;;;4853247;29;45353;-53
2023/09/27 13:20:23;;;;;;;3.65;3.30;;;22.30;51.80;;;;;;4849216;29;44757;-52
2023/09/27 13:22:49;;;;;;;3.60;3.30;;;22.30;51.80;;;;;;4846203;29;45584;-54
2023/09/27 13:25:18;;;;;;;4.00;3.40;;;22.40;51.80;;;;;;4858701;29;45578;-53
2023/09/27 13:27:44;;;;;;;3.70;3.30;;;22.40;51.80;;;;;;4858998;29;44764;-54
2023/09/27 13:30:10;;;;;;;3.95;3.53;;;22.40;51.90;;;;;;4849541;29;45263;-54
2023/09/27 13:32:36;;;;;;;3.90;3.50;;;22.40;51.90;;;;;;4837391;29;45466;-54
2023/09/27 13:35:01;;;;;;;3.40;3.10;;;22.40;51.90;;;;;;4855798;29;45508;-51
2023/09/27 13:37:27;;;;;;;4.40;3.20;;;22.40;51.90;;;;;;4868532;28;45172;-53
2023/09/27 13:39:53;;;;;;;4.00;3.42;;;22.40;51.90;;;;;;4850038;29;45666;-53
2023/09/27 13:42:18;;;;;;;4.32;3.20;;;22.40;51.90;;;;;;4836450;29;45704;-54
2023/09/27 13:44:46;;;;;;;4.95;3.45;;;22.30;51.90;;;;;;4851584;29;45464;-54
2023/09/27 13:47:12;;;;;;;3.53;2.92;;;22.40;51.90;;;;;;4824978;29;44985;-60
2023/09/27 13:49:37;;;;;;;3.73;3.33;;;22.40;52.00;;;;;;4852843;29;44857;-54
2023/09/27 13:52:04;;;;;;;3.83;3.20;;;22.40;51.90;;;;;;4844100;29;47134;-56
2023/09/27 13:54:30;;;;;;;3.87;3.17;;;22.40;51.90;;;;;;4855059;29;48433;-58
2023/09/27 13:56:56;;;;;;;4.50;3.10;;;22.40;51.90;;;;;;4839096;29;45783;-56
2023/09/27 13:59:21;;;;;;;3.83;3.08;;;22.40;52.00;;;;;;4850931;29;45326;-59
2023/09/27 14:01:47;;;;;;;3.30;3.00;;;22.40;52.00;;;;;;4821428;29;45277;-56
2023/09/27 14:04:12;;;;;;;3.25;2.95;;;22.40;52.00;;;;;;4840942;29;46271;-51
2023/09/27 14:06:38;;;;;;;3.45;3.13;;;22.40;52.00;;;;;;4832232;29;46901;-56
2023/09/27 14:09:03;;;;;;;4.05;3.28;;;22.40;52.00;;;;;;4848849;29;47092;-54
2023/09/27 14:11:29;;;;;;;3.85;3.15;;;22.40;52.00;;;;;;4837678;29;45280;-57
2023/09/27 14:13:54;;;;;;;4.32;3.20;;;22.40;52.00;;;;;;4841088;29;44947;-58
2023/09/27 14:16:20;;;;;;;3.30;3.00;;;22.40;52.10;;;;;;4837235;29;44679;-53
2023/09/27 14:18:46;;;;;;;3.63;3.10;;;22.40;52.00;;;;;;4844602;29;45226;-56
2023/09/27 14:21:12;;;;;;;3.43;3.13;;;22.40;52.00;;;;;;4851627;28;46317;-52
2023/09/27 14:23:38;;;;;;;3.50;3.20;;;22.40;52.10;;;;;;4844979;29;45554;-60
2023/09/27 14:26:04;;;;;;;3.10;2.80;;;22.50;52.20;;;;;;4835052;29;45289;-53
2023/09/27 14:28:29;;;;;;;3.78;3.00;;;22.50;52.20;;;;;;4849181;29;45170;-57
2023/09/27 14:30:55;;;;;;;3.88;3.25;;;22.50;52.10;;;;;;4832497;29;45246;-57
2023/09/27 14:33:20;;;;;;;3.50;3.00;;;22.40;52.10;;;;;;4848296;29;45874;-51
2023/09/27 14:35:46;;;;;;;3.90;3.30;;;22.40;52.10;;;;;;4817833;29;46077;-53
2023/09/27 14:38:12;;;;;;;4.78;3.10;;;22.50;52.20;;;;;;4844765;29;45821;-56
2023/09/27 14:40:38;;;;;;;3.30;3.00;;;22.50;52.20;;;;;;4844153;29;45926;-57
2023/09/27 14:43:06;;;;;;;3.43;3.13;;;22.50;52.20;;;;;;4845859;29;46293;-53
2023/09/27 14:45:32;;;;;;;3.22;2.92;;;22.40;52.10;;;;;;4845480;29;45238;-54
2023/09/27 14:47:58;;;;;;;3.33;3.03;;;22.50;52.20;;;;;;4850725;29;45389;-57
2023/09/27 14:50:24;;;;;;;3.43;2.90;;;22.50;52.20;;;;;;4847636;29;45474;-57
2023/09/27 14:52:49;;;;;;;4.50;3.00;;;22.50;52.20;;;;;;4843492;29;45953;-57
2023/09/27 14:55:17;;;;;;;3.20;2.80;;;22.40;52.20;;;;;;4849036;29;44978;-54
2023/09/27 14:57:43;;;;;;;3.77;2.97;;;22.50;52.30;;;;;;4848607;29;45257;-56
2023/09/27 15:00:11;;;;;;;3.38;3.08;;;22.50;52.20;;;;;;4843207;29;45817;-60
2023/09/27 15:02:38;;;;;;;3.43;3.00;;;22.50;52.30;;;;;;4846593;28;45315;-53
2023/09/27 15:05:04;;;;;;;3.33;2.80;;;22.40;52.20;;;;;;4842030;29;45607;-59
2023/09/27 15:07:30;;;;;;;5.22;3.33;;;22.50;52.20;;;;;;4845339;29;44844;-55
2023/09/27 15:09:55;;;;;;;3.20;2.90;;;22.50;52.20;;;;;;4849809;29;45265;-55
2023/09/27 15:12:21;;;;;;;3.45;2.80;;;22.50;52.30;;;;;;4844889;29;45331;-51
2023/09/27 15:14:46;;;;;;;3.28;2.97;;;22.50;52.30;;;;;;4839967;29;45425;-57
2023/09/27 15:17:12;;;;;;;3.80;2.95;;;22.50;52.30;;;;;;4836417;29;45182;-59
2023/09/27 15:19:38;;;;;;;3.28;2.97;;;22.50;52.30;;;;;;4837245;28;45054;-56
2023/09/27 15:22:03;;;;;;;4.97;3.00;;;22.50;52.30;;;;;;4853218;28;46158;-52
2023/09/27 15:24:30;;;;;;;3.10;2.70;;;22.50;52.30;;;;;;4852262;29;45553;-55
2023/09/27 15:26:56;;;;;;;3.42;2.90;;;22.50;52.30;;;;;;4841437;29;45272;-56
2023/09/27 15:29:21;;;;;;;3.40;2.90;;;22.50;52.30;;;;;;4832167;29;46511;-56
2023/09/27 15:31:47;;;;;;;3.67;2.97;;;22.50;52.30;;;;;;4827404;29;47795;-55
2023/09/27 15:34:12;;;;;;;3.67;2.83;;;22.50;52.30;;;;;;4850042;29;45320;-56
2023/09/27 15:36:38;;;;;;;3.03;2.73;;;22.50;52.30;;;;;;4845143;29;45556;-53
2023/09/27 15:39:04;;;;;;;4.20;2.60;;;22.50;52.30;;;;;;4847857;29;46785;-55
2023/09/27 15:41:29;;;;;;;3.30;2.97;;;22.50;52.30;;;;;;4842871;29;45231;-51
2023/09/27 15:43:55;;;;;;;4.20;3.03;;;22.50;52.30;;;;;;4844719;29;45733;-56
2023/09/27 15:46:21;;;;;;;3.13;2.80;;;22.50;52.40;;;;;;4837079;29;45303;-52